createdAt,value
2022-11-01T00:01:11.670Z,26.30
2022-11-01T00:03:38.540Z,21.05
2022-11-01T00:06:05.598Z,17.12
2022-11-01T00:08:32.477Z,24.10
2022-11-01T00:11:06.188Z,24.67
2022-11-01T00:13:33.328Z,16.45
2022-11-01T00:16:00.637Z,20.35
2022-11-01T00:18:27.838Z,11.12
2022-11-01T00:20:54.698Z,18.12
2022-11-01T00:23:21.538Z,17.15
2022-11-01T00:25:48.513Z,22.05
2022-11-01T00:28:15.385Z,16.95
2022-11-01T00:30:42.553Z,15.30
2022-11-01T00:33:09.511Z,17.08
2022-11-01T00:35:39.163Z,19.12
2022-11-01T00:38:06.403Z,19.42
2022-11-01T00:40:33.379Z,23.12
2022-11-01T00:43:00.232Z,24.50
2022-11-01T00:45:27.117Z,26.42
2022-11-01T00:47:54.023Z,25.65
2022-11-01T00:50:20.886Z,15.07
2022-11-01T00:52:47.779Z,23.23
2022-11-01T00:55:14.809Z,10.60
2022-11-01T00:57:42.323Z,23.60
2022-11-01T01:00:09.961Z,18.90
2022-11-01T01:02:37.026Z,19.37
2022-11-01T01:05:04.649Z,28.62
2022-11-01T01:07:31.474Z,27.65
2022-11-01T01:09:58.305Z,25.70
2022-11-01T01:12:25.180Z,29.20
2022-11-01T01:14:52.093Z,27.92
2022-11-01T01:17:19.395Z,32.47
2022-11-01T01:19:46.304Z,15.23
2022-11-01T01:22:13.132Z,24.25
2022-11-01T01:24:45.650Z,32.85
2022-11-01T01:27:13.149Z,12.88
2022-11-01T01:29:43.732Z,36.35
2022-11-01T01:32:21.880Z,28.15
2022-11-01T01:34:49.160Z,27.48
2022-11-01T01:37:16.245Z,28.62
2022-11-01T01:39:43.157Z,9.88
2022-11-01T01:42:31.120Z,29.67
2022-11-01T01:44:57.923Z,22.08
2022-11-01T01:47:29.954Z,24.42
2022-11-01T01:50:10.947Z,28.55
2022-11-01T01:53:04.513Z,21.17
2022-11-01T01:55:37.436Z,24.08
2022-11-01T01:58:04.574Z,32.13
2022-11-01T02:00:31.576Z,25.88
2022-11-01T02:02:58.628Z,32.80
2022-11-01T02:05:54.682Z,28.67
2022-11-01T02:08:28.950Z,27.35
2022-11-01T02:11:00.034Z,30.77
2022-11-01T02:13:26.940Z,27.42
2022-11-01T02:16:07.896Z,35.60
2022-11-01T02:19:01.233Z,11.93
2022-11-01T02:21:34.062Z,35.42
2022-11-01T02:24:28.812Z,33.63
2022-11-01T02:27:13.667Z,33.65
2022-11-01T02:29:53.047Z,32.75
2022-11-01T02:32:39.041Z,29.90
2022-11-01T02:35:12.682Z,31.23
2022-11-01T02:37:47.108Z,30.73
2022-11-01T02:40:25.417Z,30.23
2022-11-01T02:42:57.768Z,28.33
2022-11-01T02:45:30.471Z,16.60
2022-11-01T02:47:58.759Z,22.62
2022-11-01T02:50:31.018Z,17.92
2022-11-01T02:52:58.435Z,22.65
2022-11-01T02:55:31.263Z,19.20
2022-11-01T02:58:05.766Z,12.68
2022-11-01T03:00:35.478Z,31.45
2022-11-01T03:03:23.317Z,29.33
2022-11-01T03:08:44.999Z,26.77
2022-11-01T03:11:14.582Z,38.78
2022-11-01T03:14:19.927Z,33.78
2022-11-01T03:17:04.847Z,33.13
2022-11-01T03:19:48.018Z,26.52
2022-11-01T03:22:41.105Z,34.08
2022-11-01T03:25:31.959Z,31.37
2022-11-01T03:28:01.793Z,41.03
2022-11-01T03:30:30.450Z,33.92
2022-11-01T03:32:58.184Z,30.73
2022-11-01T03:35:28.010Z,27.80
2022-11-01T03:37:59.629Z,16.87
2022-11-01T03:40:29.081Z,23.67
2022-11-01T03:43:01.349Z,25.15
2022-11-01T03:45:30.895Z,27.35
2022-11-01T03:47:57.802Z,21.62
2022-11-01T03:50:27.682Z,23.40
2022-11-01T03:52:55.099Z,25.70
2022-11-01T03:55:22.361Z,21.23
2022-11-01T03:57:50.944Z,23.23
2022-11-01T04:00:21.220Z,29.70
2022-11-01T04:02:51.228Z,27.98
2022-11-01T04:05:19.120Z,22.08
2022-11-01T04:07:46.480Z,26.85
2022-11-01T04:10:14.198Z,19.98
2022-11-01T04:12:41.084Z,25.83
2022-11-01T04:15:26.858Z,16.85
2022-11-01T04:18:34.242Z,29.08
2022-11-01T04:21:12.001Z,28.55
2022-11-01T04:23:38.995Z,25.48
2022-11-01T04:26:06.638Z,17.73
2022-11-01T04:28:33.617Z,30.33
2022-11-01T04:31:00.441Z,29.45
2022-11-01T04:33:27.304Z,28.67
2022-11-01T04:35:54.156Z,31.10
2022-11-01T04:38:21.044Z,32.60
2022-11-01T04:40:47.916Z,15.63
2022-11-01T04:43:15.286Z,32.67
2022-11-01T04:45:42.293Z,30.42
2022-11-01T04:48:14.005Z,28.50
2022-11-01T04:50:42.122Z,26.25
2022-11-01T04:53:10.166Z,20.65
2022-11-01T04:55:37.109Z,31.35
2022-11-01T04:58:04.663Z,18.48
2022-11-01T05:00:33.359Z,31.92
2022-11-01T05:03:04.960Z,34.25
2022-11-01T05:05:32.393Z,34.85
2022-11-01T05:08:17.475Z,27.27
2022-11-01T05:10:45.215Z,32.38
2022-11-01T05:13:13.527Z,25.00
2022-11-01T05:15:53.646Z,26.83
2022-11-01T05:18:27.589Z,31.12
2022-11-01T05:20:54.423Z,23.62
2022-11-01T05:23:21.319Z,40.92
2022-11-01T05:25:48.213Z,40.88
2022-11-01T05:28:15.110Z,31.12
2022-11-01T05:30:42.529Z,32.53
2022-11-01T05:33:10.806Z,35.45
2022-11-01T05:35:37.973Z,25.10
2022-11-01T05:38:05.570Z,30.23
2022-11-01T05:40:32.837Z,33.50
2022-11-01T05:42:59.916Z,28.00
2022-11-01T05:45:27.015Z,32.85
2022-11-01T05:47:53.983Z,18.70
2022-11-01T05:50:20.897Z,27.08
2022-11-01T05:52:48.589Z,29.87
2022-11-01T05:55:15.814Z,32.47
2022-11-01T05:57:42.723Z,26.42
2022-11-01T06:00:10.629Z,26.35
2022-11-01T06:02:37.501Z,28.17
2022-11-01T06:05:04.590Z,17.65
2022-11-01T06:07:31.429Z,15.15
2022-11-01T06:09:58.264Z,18.58
2022-11-01T06:12:25.730Z,24.52
2022-11-01T06:14:52.682Z,27.52
2022-11-01T06:17:19.685Z,32.63
2022-11-01T06:19:46.545Z,31.83
2022-11-01T06:22:13.411Z,32.97
2022-11-01T06:24:40.269Z,26.12
2022-11-01T06:27:11.462Z,27.27
2022-11-01T06:29:39.465Z,33.83
2022-11-01T06:32:06.558Z,40.28
2022-11-01T06:34:33.454Z,31.95
2022-11-01T06:37:00.360Z,12.27
2022-11-01T06:39:27.462Z,36.38
2022-11-01T06:41:54.592Z,28.87
2022-11-01T06:44:21.626Z,37.78
2022-11-01T06:46:48.479Z,31.70
2022-11-01T06:49:18.867Z,32.53
2022-11-01T06:51:46.507Z,33.78
2022-11-01T06:54:13.611Z,31.02
2022-11-01T06:56:40.541Z,30.05
2022-11-01T06:59:07.497Z,36.28
2022-11-01T07:01:35.098Z,27.25
2022-11-01T07:04:02.140Z,28.50
2022-11-01T07:06:31.216Z,27.67
2022-11-01T07:09:01.311Z,34.42
2022-11-01T07:11:31.500Z,32.90
2022-11-01T07:13:59.579Z,34.47
2022-11-01T07:16:26.929Z,32.20
2022-11-01T07:18:53.858Z,18.75
2022-11-01T07:21:20.881Z,26.25
2022-11-01T07:23:47.836Z,30.05
2022-11-01T07:26:14.859Z,33.40
2022-11-01T07:28:41.762Z,31.20
2022-11-01T07:31:08.635Z,35.83
2022-11-01T07:33:35.493Z,31.17
2022-11-01T07:36:02.820Z,29.75
2022-11-01T07:38:29.657Z,28.58
2022-11-01T07:40:56.490Z,27.20
2022-11-01T07:43:23.363Z,25.37
2022-11-01T07:45:50.361Z,28.55
2022-11-01T07:48:18.648Z,20.92
2022-11-01T07:50:46.149Z,24.52
2022-11-01T07:53:15.549Z,25.62
2022-11-01T07:55:42.733Z,19.48
2022-11-01T07:58:11.352Z,21.90
2022-11-01T08:00:39.400Z,25.80
2022-11-01T08:03:07.670Z,18.12
2022-11-01T08:05:35.158Z,28.42
2022-11-01T08:08:02.577Z,27.23
2022-11-01T08:10:30.122Z,15.30
2022-11-01T08:13:08.477Z,20.77
2022-11-01T08:15:35.551Z,21.25
2022-11-01T08:18:02.866Z,15.20
2022-11-01T08:20:30.231Z,21.17
2022-11-01T08:22:57.259Z,19.52
2022-11-01T08:25:24.491Z,10.77
2022-11-01T08:27:51.509Z,12.35
2022-11-01T08:30:19.490Z,22.85
2022-11-01T08:32:46.540Z,23.42
2022-11-01T08:35:13.570Z,21.62
2022-11-01T08:37:52.782Z,17.27
2022-11-01T08:40:21.116Z,17.27
2022-11-01T08:42:48.593Z,15.65
2022-11-01T08:45:16.052Z,18.58
2022-11-01T08:47:42.973Z,18.35
2022-11-01T08:50:11.586Z,17.30
2022-11-01T08:52:39.002Z,17.87
2022-11-01T08:55:07.138Z,19.60
2022-11-01T08:57:34.356Z,21.30
2022-11-01T09:00:01.501Z,16.87
2022-11-01T09:02:28.489Z,19.05
2022-11-01T09:04:55.414Z,11.88
2022-11-01T09:07:22.275Z,17.02
2022-11-01T09:09:49.075Z,18.10
2022-11-01T09:12:16.667Z,16.25
2022-11-01T09:14:48.375Z,17.87
2022-11-01T09:17:15.550Z,18.73
2022-11-01T09:19:42.489Z,16.73
2022-11-01T09:22:10.310Z,18.37
2022-11-01T09:24:37.310Z,16.80
2022-11-01T09:27:04.201Z,14.60
2022-11-01T09:29:31.125Z,17.77
2022-11-01T09:31:58.005Z,17.50
2022-11-01T09:34:24.888Z,16.83
2022-11-01T09:36:51.768Z,17.67
2022-11-01T09:39:22.261Z,17.80
2022-11-01T09:42:03.153Z,19.05
2022-11-01T09:44:38.249Z,17.45
2022-11-01T09:47:13.863Z,17.98
2022-11-01T09:49:42.116Z,16.73
2022-11-01T09:52:21.581Z,19.12
2022-11-01T09:54:48.985Z,17.35
2022-11-01T09:57:15.835Z,16.37
2022-11-01T10:00:13.771Z,16.25
2022-11-01T10:02:58.842Z,16.62
2022-11-01T10:05:51.561Z,16.65
2022-11-01T10:08:18.350Z,18.73
2022-11-01T10:11:08.607Z,17.80
2022-11-01T10:13:45.057Z,15.85
2022-11-01T10:16:23.603Z,17.70
2022-11-01T10:19:04.677Z,18.30
2022-11-01T10:21:43.192Z,16.60
2022-11-01T10:24:32.364Z,16.10
2022-11-01T10:27:14.630Z,16.20
2022-11-01T10:29:45.314Z,16.83
2022-11-01T10:32:47.884Z,15.30
2022-11-01T10:35:18.353Z,18.90
2022-11-01T10:38:04.068Z,18.98
2022-11-01T10:40:42.283Z,17.95
2022-11-01T10:43:18.840Z,17.35
2022-11-01T10:45:47.833Z,15.70
2022-11-01T10:48:30.647Z,16.85
2022-11-01T10:51:01.289Z,15.75
2022-11-01T10:53:29.208Z,15.98
2022-11-01T10:55:58.935Z,15.68
2022-11-01T10:58:42.301Z,15.02
2022-11-01T11:01:12.582Z,15.90
2022-11-01T11:03:41.387Z,16.08
2022-11-01T11:06:13.421Z,14.98
2022-11-01T11:08:42.579Z,14.60
2022-11-01T11:11:14.510Z,14.93
2022-11-01T11:13:45.817Z,16.08
2022-11-01T11:16:26.497Z,15.30
2022-11-01T11:19:01.699Z,14.07
2022-11-01T11:21:32.546Z,14.45
2022-11-01T11:23:59.461Z,12.35
2022-11-01T11:26:26.701Z,14.57
2022-11-01T11:28:56.454Z,17.08
2022-11-01T11:31:29.213Z,12.80
2022-11-01T11:34:01.366Z,16.15
2022-11-01T11:36:41.967Z,16.48
2022-11-01T11:39:26.656Z,14.32
2022-11-01T11:41:53.682Z,14.90
2022-11-01T11:44:35.417Z,16.75
2022-11-01T11:47:03.347Z,14.35
2022-11-01T11:49:30.565Z,15.05
2022-11-01T11:51:59.172Z,16.45
2022-11-01T11:54:32.330Z,14.98
2022-11-01T11:57:20.810Z,15.55
2022-11-01T11:59:55.736Z,14.68
2022-11-01T12:02:34.938Z,14.40
2022-11-01T12:05:09.628Z,14.70
2022-11-01T12:07:45.101Z,14.63
2022-11-01T12:10:29.228Z,14.85
2022-11-01T12:12:57.050Z,14.50
2022-11-01T12:15:38.355Z,13.40
2022-11-01T12:18:15.959Z,14.57
2022-11-01T12:20:48.548Z,14.18
2022-11-01T12:23:36.550Z,14.55
2022-11-01T12:26:06.676Z,14.52
2022-11-01T12:28:36.863Z,16.67
2022-11-01T12:31:09.158Z,13.85
2022-11-01T12:33:47.737Z,14.57
2022-11-01T12:36:15.587Z,16.17
2022-11-01T12:38:47.389Z,15.95
2022-11-01T12:41:43.982Z,16.87
2022-11-01T12:44:29.357Z,15.45
2022-11-01T12:47:00.498Z,16.40
2022-11-01T12:49:30.838Z,15.20
2022-11-01T12:52:03.537Z,17.00
2022-11-01T12:54:40.271Z,16.40
2022-11-01T12:57:25.286Z,15.80
2022-11-01T12:59:52.522Z,16.20
2022-11-01T13:02:34.904Z,16.52
2022-11-01T13:05:35.966Z,16.45
2022-11-01T13:08:24.614Z,17.65
2022-11-01T13:10:51.489Z,17.08
2022-11-01T13:13:25.309Z,16.75
2022-11-01T13:15:58.552Z,15.32
2022-11-01T13:18:55.715Z,17.17
2022-11-01T13:21:39.041Z,15.43
2022-11-01T13:24:27.084Z,17.77
2022-11-01T13:27:24.637Z,16.23
2022-11-01T13:29:59.991Z,17.33
2022-11-01T13:32:32.986Z,18.45
2022-11-01T13:35:18.225Z,18.42
2022-11-01T13:37:56.884Z,16.25
2022-11-01T13:41:01.798Z,18.12
2022-11-01T13:43:39.563Z,18.42
2022-11-01T13:46:18.277Z,16.27
2022-11-01T13:49:05.502Z,18.05
2022-11-01T13:51:55.380Z,18.27
2022-11-01T13:54:28.035Z,16.60
2022-11-01T13:57:06.894Z,18.23
2022-11-01T13:59:58.587Z,17.25
2022-11-01T14:02:28.709Z,18.67
2022-11-01T14:05:04.499Z,17.42
2022-11-01T14:07:44.318Z,16.75
2022-11-01T14:10:22.819Z,18.50
2022-11-01T14:13:07.743Z,17.95
2022-11-01T14:15:58.614Z,17.85
2022-11-01T14:18:26.715Z,18.20
2022-11-01T14:20:54.635Z,18.55
2022-11-01T14:23:27.969Z,18.92
2022-11-01T14:26:21.356Z,18.55
2022-11-01T14:28:49.860Z,20.10
2022-11-01T14:31:19.598Z,18.50
2022-11-01T14:33:48.624Z,19.05
2022-11-01T14:36:18.045Z,17.20
2022-11-01T14:38:48.113Z,20.12
2022-11-01T14:41:16.295Z,19.27
2022-11-01T14:46:39.070Z,19.90
2022-11-01T14:49:21.583Z,18.62
2022-11-01T14:52:19.936Z,18.80
2022-11-01T14:54:46.765Z,19.05
2022-11-01T14:57:25.984Z,19.62
2022-11-01T14:59:54.122Z,18.12
2022-11-01T15:02:22.348Z,20.00
2022-11-01T15:04:50.857Z,18.95
2022-11-01T15:07:30.606Z,20.02
2022-11-01T15:10:01.129Z,19.58
2022-11-01T15:12:31.229Z,19.70
2022-11-01T15:14:58.962Z,18.75
2022-11-01T15:17:28.836Z,19.95
2022-11-01T15:19:56.543Z,18.90
2022-11-01T15:22:26.774Z,19.77
2022-11-01T15:24:58.532Z,18.95
2022-11-01T15:27:32.635Z,20.00
2022-11-01T15:29:59.537Z,19.60
2022-11-01T15:32:32.608Z,19.30
2022-11-01T15:35:06.072Z,19.45
2022-11-01T15:37:33.732Z,19.75
2022-11-01T15:40:01.931Z,19.83
2022-11-01T15:42:34.092Z,21.10
2022-11-01T15:45:23.101Z,20.33
2022-11-01T15:47:50.003Z,19.50
2022-11-01T15:50:17.216Z,20.65
2022-11-01T15:52:45.863Z,20.52
2022-11-01T15:55:30.675Z,20.77
2022-11-01T15:58:05.454Z,20.30
2022-11-01T16:00:36.222Z,20.73
2022-11-01T16:03:07.010Z,19.37
2022-11-01T16:05:58.507Z,20.35
2022-11-01T16:08:32.317Z,18.83
2022-11-01T16:11:00.076Z,17.80
2022-11-01T16:13:27.141Z,19.02
2022-11-01T16:16:07.633Z,19.75
2022-11-01T16:18:36.611Z,20.98
2022-11-01T16:21:21.016Z,20.30
2022-11-01T16:24:09.535Z,15.50
2022-11-01T16:26:53.927Z,17.87
2022-11-01T16:29:40.267Z,17.20
2022-11-01T16:32:10.149Z,16.25
2022-11-01T16:34:37.200Z,29.77
2022-11-01T16:37:14.531Z,25.98
2022-11-01T16:39:42.220Z,30.67
2022-11-01T16:42:09.959Z,19.85
2022-11-01T16:44:36.844Z,23.25
2022-11-01T16:47:03.793Z,20.77
2022-11-01T16:49:30.643Z,20.50
2022-11-01T16:51:57.693Z,20.48
2022-11-01T16:54:26.140Z,21.77
2022-11-01T16:56:55.187Z,25.23
2022-11-01T16:59:38.223Z,35.58
2022-11-01T17:02:20.218Z,48.03
2022-11-01T17:04:50.171Z,50.47
2022-11-01T17:07:17.158Z,59.90
2022-11-01T17:09:44.130Z,50.55
2022-11-01T17:12:11.684Z,41.67
2022-11-01T17:17:14.839Z,50.85
2022-11-01T17:19:44.755Z,49.63
2022-11-01T17:22:19.525Z,56.33
2022-11-01T17:24:46.600Z,43.08
2022-11-01T17:27:14.601Z,48.05
2022-11-01T17:29:41.713Z,47.67
2022-11-01T17:32:09.811Z,44.88
2022-11-01T17:34:37.723Z,31.90
2022-11-01T17:37:04.726Z,30.92
2022-11-01T17:39:31.955Z,31.35
2022-11-01T17:41:59.457Z,32.33
2022-11-01T17:44:26.547Z,35.28
2022-11-01T17:46:53.449Z,36.80
2022-11-01T17:49:23.781Z,32.00
2022-11-01T17:51:54.709Z,30.90
2022-11-01T17:54:23.188Z,28.33
2022-11-01T17:56:51.478Z,25.75
2022-11-01T17:59:18.562Z,24.17
2022-11-01T18:01:45.472Z,22.27
2022-11-01T18:04:12.437Z,21.77
2022-11-01T18:06:40.862Z,21.70
2022-11-01T18:09:24.301Z,23.23
2022-11-01T18:12:06.276Z,22.67
2022-11-01T18:14:46.963Z,25.92
2022-11-01T18:17:35.155Z,26.37
2022-11-01T18:20:04.947Z,25.35
2022-11-01T18:22:51.595Z,25.98
2022-11-01T18:25:31.625Z,23.60
2022-11-01T18:28:06.895Z,24.33
2022-11-01T18:30:33.915Z,27.70
2022-11-01T18:33:10.905Z,26.62
2022-11-01T18:36:00.756Z,25.42
2022-11-01T18:38:44.688Z,27.62
2022-11-01T18:41:14.617Z,24.52
2022-11-01T18:43:41.780Z,22.30
2022-11-01T18:46:25.721Z,24.17
2022-11-01T18:48:59.770Z,24.60
2022-11-01T18:51:32.478Z,24.70
2022-11-01T18:54:23.431Z,27.25
2022-11-01T18:56:53.569Z,26.50
2022-11-01T18:59:29.491Z,26.98
2022-11-01T19:02:13.870Z,26.87
2022-11-01T19:04:46.352Z,24.52
2022-11-01T19:07:15.987Z,24.35
2022-11-01T19:09:56.346Z,24.05
2022-11-01T19:12:41.307Z,22.73
2022-11-01T19:15:13.641Z,21.65
2022-11-01T19:17:48.010Z,18.17
2022-11-01T19:20:21.312Z,19.48
2022-11-01T19:22:48.414Z,19.85
2022-11-01T19:25:20.044Z,16.92
2022-11-01T19:27:50.877Z,17.60
2022-11-01T19:30:24.735Z,16.62
2022-11-01T19:32:53.332Z,15.23
2022-11-01T19:35:22.240Z,16.10
2022-11-01T19:37:51.311Z,15.93
2022-11-01T19:40:29.000Z,14.18
2022-11-01T19:42:56.006Z,14.18
2022-11-01T19:45:29.050Z,14.07
2022-11-01T19:47:56.088Z,14.02
2022-11-01T19:50:38.344Z,14.65
2022-11-01T19:53:15.290Z,14.60
2022-11-01T19:55:46.199Z,14.02
2022-11-01T19:58:15.814Z,14.50
2022-11-01T20:00:42.762Z,12.93
2022-11-01T20:03:21.018Z,14.15
2022-11-01T20:05:48.850Z,13.82
2022-11-01T20:08:25.925Z,15.52
2022-11-01T20:10:52.782Z,16.20
2022-11-01T20:13:19.704Z,15.75
2022-11-01T20:15:47.278Z,17.33
2022-11-01T20:18:14.117Z,16.30
2022-11-01T20:20:44.119Z,17.02
2022-11-01T20:23:27.374Z,16.08
2022-11-01T20:25:55.387Z,15.60
2022-11-01T20:28:22.347Z,16.37
2022-11-01T20:30:49.197Z,16.12
2022-11-01T20:33:16.480Z,15.43
2022-11-01T20:35:43.566Z,15.98
2022-11-01T20:38:10.551Z,16.60
2022-11-01T20:40:37.494Z,16.42
2022-11-01T20:43:04.795Z,15.55
2022-11-01T20:45:31.954Z,15.38
2022-11-01T20:47:58.802Z,16.20
2022-11-01T20:50:25.725Z,16.75
2022-11-01T20:52:52.660Z,16.50
2022-11-01T20:55:19.546Z,16.27
2022-11-01T20:57:46.477Z,19.52
2022-11-01T21:00:14.183Z,19.90
2022-11-01T21:02:41.206Z,22.30
2022-11-01T21:05:23.172Z,24.00
2022-11-01T21:07:51.135Z,25.40
2022-11-01T21:10:35.630Z,31.62
2022-11-01T21:13:04.580Z,30.88
2022-11-01T21:15:35.140Z,28.12
2022-11-01T21:18:07.871Z,27.98
2022-11-01T21:20:54.908Z,33.33
2022-11-01T21:23:21.681Z,29.17
2022-11-01T21:25:52.660Z,33.05
2022-11-01T21:28:30.463Z,36.22
2022-11-01T21:31:21.199Z,34.10
2022-11-01T21:34:00.830Z,29.02
2022-11-01T21:36:35.379Z,22.77
2022-11-01T21:39:04.309Z,23.17
2022-11-01T21:41:39.125Z,21.35
2022-11-01T21:44:16.364Z,24.65
2022-11-01T21:49:29.490Z,19.00
2022-11-01T21:52:00.497Z,15.50
2022-11-01T21:54:29.537Z,18.65
2022-11-01T21:56:57.166Z,17.05
2022-11-01T21:59:24.890Z,16.50
2022-11-01T22:01:51.910Z,16.45
2022-11-01T22:04:18.893Z,17.12
2022-11-01T22:06:47.982Z,17.05
2022-11-01T22:09:16.135Z,15.18
2022-11-01T22:11:43.265Z,17.30
2022-11-01T22:14:10.763Z,16.17
2022-11-01T22:16:38.020Z,13.82
2022-11-01T22:19:05.889Z,14.00
2022-11-01T22:21:33.152Z,13.18
2022-11-01T22:24:00.143Z,13.50
2022-11-01T22:26:27.394Z,12.90
2022-11-01T22:28:54.250Z,12.73
2022-11-01T22:31:21.716Z,11.88
2022-11-01T22:33:52.133Z,12.75
2022-11-01T22:36:35.533Z,13.30
2022-11-01T22:39:12.420Z,13.23
2022-11-01T22:41:40.447Z,13.55
2022-11-01T22:44:28.004Z,13.70
2022-11-01T22:47:00.378Z,14.45
2022-11-01T22:49:32.672Z,12.73
2022-11-01T22:52:00.475Z,12.25
2022-11-01T22:54:41.185Z,12.02
2022-11-01T22:57:14.356Z,13.65
2022-11-01T22:59:46.461Z,12.52
2022-11-01T23:02:28.634Z,12.77
2022-11-01T23:05:17.010Z,12.52
2022-11-01T23:07:54.426Z,12.85
2022-11-01T23:10:35.213Z,12.30
2022-11-01T23:13:29.786Z,12.43
2022-11-01T23:16:02.319Z,11.80
2022-11-01T23:18:32.023Z,12.52
2022-11-01T23:21:03.785Z,11.57
2022-11-01T23:23:30.659Z,12.00
2022-11-01T23:25:59.893Z,11.75
2022-11-01T23:28:27.620Z,11.60
2022-11-01T23:30:55.089Z,11.60
2022-11-01T23:33:23.280Z,12.13
2022-11-01T23:35:57.444Z,12.07
2022-11-01T23:38:36.245Z,11.48
2022-11-01T23:41:03.352Z,12.57
2022-11-01T23:43:36.412Z,11.68
2022-11-01T23:46:03.985Z,11.35
2022-11-01T23:48:31.019Z,12.68
2022-11-01T23:50:58.763Z,11.55
2022-11-01T23:53:36.373Z,11.55
2022-11-01T23:56:06.902Z,11.77
2022-11-01T23:58:34.959Z,11.43
